EFTP/TMP METAR and TAF weather

Enter ICAO airport designator
Station Type Date Time Source
EFTP METAR 2022/01/19 19:50 UTC NOAA

EFTP 191950Z AUTO 21009KT 180V240 9999 OVC009 02/01 Q0986


Station Type Date Time Source
EFTP Decoded METAR 2022/01/19 19:50 UTC NOAA

Tampere / Pirkkala, Finland (EFTP) 61-25N 023-35E 112M
Jan 19, 2022 - 02:50 PM EST / 2022.01.19 1950 UTC
Wind: from the SSW (210 degrees) at 10 MPH (9 KT) (direction variable):0
Visibility: greater than 7 mile(s):0
Sky conditions: overcast
Temperature: 35 F (2 C)
Windchill: 26 F (-3 C):1
Dew Point: 33 F (1 C)
Relative Humidity: 93%
Pressure (altimeter): 29.12 in. Hg (0986 hPa)
ob: EFTP 191950Z AUTO 21009KT 180V240 9999 OVC009 02/01 Q0986
cycle: 20

Station Type Date Time Source
EFTP TAF 2022/01/19 18:45 UTC NOAA

TAF EFTP 191733Z 1918/2018 23013KT 9999 OVC012
BECMG 1919/1921 2000 DZ BKN003
BECMG 1923/2001 1200 -SNRA
TEMPO 2002/2005 0700 SN
BECMG 2005/2007 36016G30KT 2000 -SN BKN015
BECMG 2013/2015 9999

Example: see airport list